Carbonear, Canada
Current Conditions -  °F | °C
As of 4:00 PM on Tuesday 27 Jan 2015 (Local Time) from CYYT Reporting Station
Overcast Overcast  
Wind Chill: -14°   Ceiling: 1500
Heat Index: -5°   Visibility: 15mi
Dew Point: -7°   Wind: 26mph
Humidity: 86%   Direction: 90°E
Pressure: 30.22"   Gusts: 35mph
Location:  47.73°N, 53.25°W
Report Text: CYYT 271900Z 09023G30KT 15SM OVC015 M05/M07 A3022 RMK SC8 PRESFR SLP243
Loading
Personal Weather Stations






























Interactive Weather Map New forecast layout! Learn more

10-Day Weather Forecast

Advertisements
Track Severe Weather on mobile